Time,TemperatureF,DewpointF,PressureIn,WindDirection,WindDirectionDegrees,WindSpeedMPH,WindSpeedGustMPH,Humidity,HourlyPrecipIn,Conditions,Clouds,dailyrainin,SoftwareType,DateUTC
2013-07-30 00:02:00,67.0,34.0,-100.00,WSW,254,7.0,14.0,30,-99.99,,,-99.99,,2013-07-30 07:02:00,
2013-07-30 00:33:00,66.0,35.0,-100.00,SW,236,7.0,16.0,31,-99.99,,,-99.99,,2013-07-30 07:33:00,
2013-07-30 00:53:00,66.0,35.0,-100.00,WSW,257,5.0,9.0,31,-99.99,,,-99.99,,2013-07-30 07:53:00,
2013-07-30 01:02:00,65.0,35.0,-100.00,WSW,251,5.0,18.0,32,-99.99,,,-99.99,,2013-07-30 08:02:00,
2013-07-30 01:22:00,66.0,35.0,-100.00,WSW,248,7.0,14.0,32,-99.99,,,-99.99,,2013-07-30 08:22:00,
2013-07-30 01:53:00,64.0,35.0,-100.00,WSW,244,8.0,14.0,34,-99.99,,,-99.99,,2013-07-30 08:53:00,
2013-07-30 02:02:00,65.0,36.0,-100.00,SW,233,9.0,15.0,33,-99.99,,,-99.99,,2013-07-30 09:02:00,
2013-07-30 02:12:00,65.0,36.0,-100.00,SW,233,9.0,15.0,33,-99.99,,,-99.99,,2013-07-30 09:12:00,
2013-07-30 02:22:00,65.0,36.0,-100.00,SW,233,9.0,15.0,33,-99.99,,,-99.99,,2013-07-30 09:22:00,
2013-07-30 02:43:00,62.0,36.0,-100.00,SW,224,7.0,13.0,37,-99.99,,,-99.99,,2013-07-30 09:43:00,
2013-07-30 02:53:00,63.0,36.0,-100.00,SW,233,8.0,15.0,37,-99.99,,,-99.99,,2013-07-30 09:53:00,
2013-07-30 03:02:00,63.0,36.0,-100.00,SW,233,8.0,15.0,37,-99.99,,,-99.99,,2013-07-30 10:02:00,
2013-07-30 03:12:00,63.0,36.0,-100.00,SW,233,8.0,15.0,37,-99.99,,,-99.99,,2013-07-30 10:12:00,
2013-07-30 03:43:00,63.0,37.0,-100.00,WSW,240,4.0,10.0,38,-99.99,,,-99.99,,2013-07-30 10:43:00,
2013-07-30 04:02:00,63.0,37.0,-100.00,WSW,246,5.0,11.0,37,-99.99,,,-99.99,,2013-07-30 11:02:00,
2013-07-30 04:33:00,62.0,37.0,-100.00,WSW,248,7.0,11.0,38,-99.99,,,-99.99,,2013-07-30 11:33:00,
2013-07-30 04:43:00,63.0,37.0,-100.00,WSW,246,7.0,13.0,38,-99.99,,,-99.99,,2013-07-30 11:43:00,
2013-07-30 04:53:00,63.0,37.0,-100.00,WSW,246,7.0,13.0,38,-99.99,,,-99.99,,2013-07-30 11:53:00,
2013-07-30 05:12:00,63.0,37.0,-100.00,WSW,250,5.0,10.0,38,-99.99,,,-99.99,,2013-07-30 12:12:00,
2013-07-30 05:22:00,63.0,37.0,-100.00,WSW,250,5.0,10.0,38,-99.99,,,-99.99,,2013-07-30 12:22:00,
2013-07-30 05:33:00,64.0,37.0,-100.00,WSW,254,6.0,10.0,36,-99.99,,,-99.99,,2013-07-30 12:33:00,
2013-07-30 05:42:00,64.0,37.0,-100.00,West,265,4.0,7.0,37,-99.99,,,-99.99,,2013-07-30 12:42:00,
2013-07-30 05:53:00,64.0,37.0,-100.00,West,265,4.0,7.0,37,-99.99,,,-99.99,,2013-07-30 12:53:00,
2013-07-30 06:01:00,64.0,37.0,-100.00,WSW,254,6.0,11.0,37,-99.99,,,-99.99,,2013-07-30 13:01:00,
2013-07-30 06:12:00,65.0,37.0,-100.00,WSW,254,6.0,11.0,36,-99.99,,,-99.99,,2013-07-30 13:12:00,
2013-07-30 06:42:00,63.0,38.0,-100.00,WSW,244,5.0,9.0,39,-99.99,,,-99.99,,2013-07-30 13:42:00,
2013-07-30 07:12:00,61.0,38.0,-100.00,SW,224,6.0,9.0,43,-99.99,,,-99.99,,2013-07-30 14:12:00,
2013-07-30 07:32:00,63.0,38.0,-100.00,SW,217,5.0,9.0,40,-99.99,,,-99.99,,2013-07-30 14:32:00,
2013-07-30 07:53:00,65.0,38.0,-100.00,SW,217,5.0,9.0,37,-99.99,,,-99.99,,2013-07-30 14:53:00,
2013-07-30 08:01:00,68.0,37.0,-100.00,WSW,243,9.0,20.0,32,-99.99,,,-99.99,,2013-07-30 15:01:00,
2013-07-30 08:02:00,65.0,38.0,-100.00,North,-999,-999.0,-999.0,37,-99.99,,,-99.99,,2013-07-30 15:02:00,
2013-07-30 08:43:00,68.0,37.0,-100.00,WSW,243,9.0,20.0,32,-99.99,,,-99.99,,2013-07-30 15:43:00,
2013-07-30 08:53:00,68.0,37.0,-100.00,WSW,243,9.0,20.0,32,-99.99,,,-99.99,,2013-07-30 15:53:00,
2013-07-30 09:12:00,69.0,36.0,-100.00,SSE,167,4.0,8.0,30,-99.99,,,-99.99,,2013-07-30 16:12:00,
2013-07-30 09:22:00,69.0,36.0,-100.00,SSE,167,4.0,8.0,30,-99.99,,,-99.99,,2013-07-30 16:22:00,
2013-07-30 09:43:00,70.0,35.0,-100.00,South,191,5.0,12.0,27,-99.99,,,-99.99,,2013-07-30 16:43:00,
2013-07-30 09:52:00,70.0,35.0,-100.00,South,191,5.0,12.0,27,-99.99,,,-99.99,,2013-07-30 16:52:00,
2013-07-30 10:02:00,70.0,35.0,-100.00,WSW,247,11.0,20.0,27,-99.99,,,-99.99,,2013-07-30 17:02:00,
2013-07-30 10:12:00,70.0,34.0,-100.00,WSW,247,11.0,20.0,27,-99.99,,,-99.99,,2013-07-30 17:12:00,
2013-07-30 10:32:00,71.0,33.0,-100.00,WSW,240,9.0,19.0,25,-99.99,,,-99.99,,2013-07-30 17:32:00,
2013-07-30 10:43:00,71.0,33.0,-100.00,WSW,251,12.0,21.0,24,-99.99,,,-99.99,,2013-07-30 17:43:00,
2013-07-30 11:02:00,72.0,32.0,-100.00,WSW,243,13.0,23.0,23,-99.99,,,-99.99,,2013-07-30 18:02:00,
2013-07-30 11:32:00,74.0,30.0,-100.00,WSW,253,13.0,22.0,20,-99.99,,,-99.99,,2013-07-30 18:32:00,
2013-07-30 11:42:00,74.0,30.0,-100.00,WSW,253,13.0,22.0,20,-99.99,,,-99.99,,2013-07-30 18:42:00,
2013-07-30 11:52:00,74.0,32.0,-100.00,SW,230,10.0,22.0,21,-99.99,,,-99.99,,2013-07-30 18:52:00,
2013-07-30 12:02:00,75.0,30.0,-100.00,West,260,10.0,20.0,19,-99.99,,,-99.99,,2013-07-30 19:02:00,
2013-07-30 12:12:00,75.0,30.0,-100.00,West,260,10.0,20.0,19,-99.99,,,-99.99,,2013-07-30 19:12:00,
2013-07-30 12:22:00,75.0,30.0,-100.00,West,260,10.0,20.0,19,-99.99,,,-99.99,,2013-07-30 19:22:00,
2013-07-30 12:44:00,76.0,29.0,-100.00,WSW,247,9.0,21.0,18,-99.99,,,-99.99,,2013-07-30 19:44:00,
2013-07-30 12:52:00,76.0,29.0,-100.00,WSW,247,9.0,21.0,18,-99.99,,,-99.99,,2013-07-30 19:52:00,
2013-07-30 13:02:00,76.0,29.0,-100.00,WSW,240,13.0,24.0,18,-99.99,,,-99.99,,2013-07-30 20:02:00,
2013-07-30 13:12:00,76.0,30.0,-100.00,WSW,240,13.0,24.0,18,-99.99,,,-99.99,,2013-07-30 20:12:00,
2013-07-30 13:43:00,76.0,28.0,-100.00,WSW,246,13.0,26.0,17,-99.99,,,-99.99,,2013-07-30 20:43:00,
2013-07-30 13:52:00,76.0,28.0,-100.00,SW,233,11.0,23.0,17,-99.99,,,-99.99,,2013-07-30 20:52:00,
2013-07-30 14:02:00,76.0,30.0,-100.00,SW,233,11.0,23.0,18,-99.99,,,-99.99,,2013-07-30 21:02:00,
2013-07-30 14:12:00,76.0,30.0,-100.00,SW,233,11.0,23.0,18,-99.99,,,-99.99,,2013-07-30 21:12:00,
2013-07-30 14:22:00,76.0,30.0,-100.00,SW,233,11.0,23.0,18,-99.99,,,-99.99,,2013-07-30 21:22:00,
2013-07-30 15:02:00,78.0,31.0,-100.00,WSW,254,11.0,23.0,18,-99.99,,,-99.99,,2013-07-30 22:02:00,
2013-07-30 15:11:00,78.0,31.0,-100.00,WSW,254,11.0,23.0,18,-99.99,,,-99.99,,2013-07-30 22:11:00,
2013-07-30 15:32:00,77.0,30.0,-100.00,WSW,248,13.0,26.0,18,-99.99,,,-99.99,,2013-07-30 22:32:00,
2013-07-30 15:43:00,77.0,30.0,-100.00,WSW,246,14.0,29.0,18,-99.99,,,-99.99,,2013-07-30 22:43:00,
2013-07-30 15:52:00,78.0,30.0,-100.00,WSW,253,13.0,30.0,17,-99.99,,,-99.99,,2013-07-30 22:52:00,
2013-07-30 16:02:00,78.0,30.0,-100.00,WSW,253,13.0,30.0,17,-99.99,,,-99.99,,2013-07-30 23:02:00,
2013-07-30 16:12:00,77.0,32.0,-100.00,WSW,253,13.0,30.0,19,-99.99,,,-99.99,,2013-07-30 23:12:00,
2013-07-30 16:22:00,77.0,32.0,-100.00,WSW,239,15.0,28.0,19,-99.99,,,-99.99,,2013-07-30 23:22:00,
2013-07-30 16:32:00,77.0,32.0,-100.00,WSW,240,14.0,30.0,19,-99.99,,,-99.99,,2013-07-30 23:32:00,
2013-07-30 16:42:00,77.0,34.0,-100.00,WSW,241,17.0,32.0,21,-99.99,,,-99.99,,2013-07-30 23:42:00,
2013-07-30 16:53:00,77.0,34.0,-100.00,WSW,241,17.0,32.0,21,-99.99,,,-99.99,,2013-07-30 23:53:00,
2013-07-30 17:02:00,77.0,34.0,-100.00,WSW,240,14.0,26.0,21,-99.99,,,-99.99,,2013-07-31 00:02:00,
2013-07-30 17:12:00,77.0,34.0,-100.00,WSW,244,15.0,28.0,21,-99.99,,,-99.99,,2013-07-31 00:12:00,
2013-07-30 17:22:00,77.0,36.0,-100.00,WSW,244,15.0,28.0,22,-99.99,,,-99.99,,2013-07-31 00:22:00,
2013-07-30 17:32:00,77.0,36.0,-100.00,WSW,244,15.0,28.0,22,-99.99,,,-99.99,,2013-07-31 00:32:00,
2013-07-30 17:43:00,77.0,36.0,-100.00,WSW,244,15.0,28.0,22,-99.99,,,-99.99,,2013-07-31 00:43:00,
2013-07-30 18:02:00,76.0,36.0,-100.00,SW,236,15.0,31.0,23,-99.99,,,-99.99,,2013-07-31 01:02:00,
2013-07-30 18:12:00,76.0,37.0,-100.00,SW,236,15.0,31.0,24,-99.99,,,-99.99,,2013-07-31 01:12:00,
2013-07-30 18:22:00,76.0,37.0,-100.00,SW,236,15.0,31.0,24,-99.99,,,-99.99,,2013-07-31 01:22:00,
2013-07-30 18:32:00,76.0,37.0,-100.00,SW,236,15.0,31.0,24,-99.99,,,-99.99,,2013-07-31 01:32:00,
2013-07-30 19:02:00,74.0,37.0,-100.00,West,261,14.0,30.0,26,-99.99,,,-99.99,,2013-07-31 02:02:00,
2013-07-30 19:11:00,74.0,37.0,-100.00,West,261,14.0,30.0,26,-99.99,,,-99.99,,2013-07-31 02:11:00,
2013-07-30 19:22:00,74.0,37.0,-100.00,West,261,14.0,30.0,26,-99.99,,,-99.99,,2013-07-31 02:22:00,
2013-07-30 19:43:00,73.0,37.0,-100.00,West,274,11.0,21.0,27,-99.99,,,-99.99,,2013-07-31 02:43:00,
2013-07-30 19:50:00,72.0,37.0,-100.00,WNW,288,13.0,22.0,27,-99.99,,,-99.99,,2013-07-31 02:50:00,
2013-07-30 19:52:00,73.0,37.0,-100.00,West,274,11.0,21.0,27,-99.99,,,-99.99,,2013-07-31 02:52:00,
2013-07-30 20:02:00,72.0,38.0,-100.00,West,270,10.0,19.0,28,-99.99,,,-99.99,,2013-07-31 03:02:00,
2013-07-30 20:22:00,72.0,37.0,-100.00,WNW,288,13.0,22.0,27,-99.99,,,-99.99,,2013-07-31 03:22:00,
2013-07-30 20:32:00,72.0,37.0,-100.00,WNW,288,13.0,22.0,27,-99.99,,,-99.99,,2013-07-31 03:32:00,
2013-07-30 20:42:00,72.0,37.0,-100.00,WNW,288,13.0,22.0,27,-99.99,,,-99.99,,2013-07-31 03:42:00,
2013-07-30 21:02:00,70.0,38.0,-100.00,WSW,258,14.0,24.0,31,-99.99,,,-99.99,,2013-07-31 04:02:00,
2013-07-30 21:12:00,70.0,38.0,-100.00,WSW,258,14.0,24.0,31,-99.99,,,-99.99,,2013-07-31 04:12:00,
2013-07-30 21:32:00,70.0,38.0,-100.00,WSW,256,11.0,21.0,31,-99.99,,,-99.99,,2013-07-31 04:32:00,
2013-07-30 21:42:00,70.0,38.0,-100.00,WSW,256,11.0,21.0,31,-99.99,,,-99.99,,2013-07-31 04:42:00,
2013-07-30 21:52:00,70.0,38.0,-100.00,WSW,251,10.0,19.0,31,-99.99,,,-99.99,,2013-07-31 04:52:00,
2013-07-30 22:02:00,70.0,38.0,-100.00,WSW,251,10.0,19.0,31,-99.99,,,-99.99,,2013-07-31 05:02:00,
2013-07-30 22:11:00,69.0,38.0,-100.00,WSW,251,10.0,19.0,32,-99.99,,,-99.99,,2013-07-31 05:11:00,
2013-07-30 22:32:00,69.0,38.0,-100.00,WSW,253,13.0,24.0,32,-99.99,,,-99.99,,2013-07-31 05:32:00,
2013-07-30 22:42:00,69.0,38.0,-100.00,WSW,253,13.0,24.0,32,-99.99,,,-99.99,,2013-07-31 05:42:00,
2013-07-30 22:52:00,69.0,38.0,-100.00,WSW,253,13.0,24.0,32,-99.99,,,-99.99,,2013-07-31 05:52:00,